Time;durP1;ratioP1;P1;durP2;ratioP2;P2;SDS_P1;SDS_P2;PMS_P1;PMS_P2;Temp;Humidity;BMP_temperature;BMP_pressure;BME280_temperature;BME280_humidity;BME280_pressure;Samples;Min_cycle;Max_cycle;Signal;HPM_P1;HPM_P2
2023/01/24 00:01:18;;;;;;;18.00;11.65;;;1.80;99.90;;;;;;4993158;28;20436;-74
2023/01/24 00:03:44;;;;;;;15.88;10.90;;;1.80;99.90;;;;;;5008407;28;20038;-74
2023/01/24 00:06:10;;;;;;;15.20;10.53;;;1.80;99.90;;;;;;5008673;28;20084;-74
2023/01/24 00:08:35;;;;;;;18.47;11.33;;;1.80;99.90;;;;;;4991937;28;20045;-74
2023/01/24 00:11:04;;;;;;;19.23;12.23;;;1.80;99.90;;;;;;4990597;28;20053;-74
2023/01/24 00:13:31;;;;;;;18.55;12.00;;;1.80;99.90;;;;;;5008455;28;20523;-74
2023/01/24 00:16:26;;;;;;;17.95;11.27;;;1.80;99.90;;;;;;4992174;28;20054;-74
2023/01/24 00:18:52;;;;;;;18.23;11.32;;;1.80;99.90;;;;;;4998919;28;20592;-74
2023/01/24 00:21:23;;;;;;;16.73;11.07;;;1.80;99.90;;;;;;5008754;28;20073;-74
2023/01/24 00:23:54;;;;;;;19.38;11.52;;;1.80;99.90;;;;;;5007963;28;20076;-74
2023/01/24 00:26:21;;;;;;;17.83;11.73;;;1.80;99.90;;;;;;5008460;28;20049;-74
2023/01/24 00:28:47;;;;;;;18.40;12.15;;;1.80;99.90;;;;;;4991860;28;20137;-74
2023/01/24 00:31:13;;;;;;;21.27;11.95;;;1.80;99.90;;;;;;4991965;28;20038;-74
2023/01/24 00:33:39;;;;;;;16.02;10.77;;;1.80;99.90;;;;;;4991627;28;20037;-74
2023/01/24 00:36:05;;;;;;;19.23;11.17;;;1.80;99.90;;;;;;5007582;28;20042;-73
2023/01/24 00:38:31;;;;;;;17.25;10.75;;;1.80;99.90;;;;;;5008135;28;20521;-73
2023/01/24 00:40:57;;;;;;;19.25;11.85;;;1.80;99.90;;;;;;5007404;28;20149;-73
2023/01/24 00:43:23;;;;;;;18.90;11.40;;;1.80;99.90;;;;;;4991505;28;20208;-73
2023/01/24 00:45:49;;;;;;;17.85;11.98;;;1.80;99.90;;;;;;5008127;28;20070;-73
2023/01/24 00:48:15;;;;;;;18.83;12.07;;;1.80;99.90;;;;;;4999460;28;20083;-73
2023/01/24 00:50:41;;;;;;;17.57;11.67;;;1.80;99.90;;;;;;5007480;28;20034;-73
2023/01/24 00:53:07;;;;;;;18.65;11.52;;;1.80;99.90;;;;;;4991563;28;20073;-73
2023/01/24 00:55:33;;;;;;;18.23;11.57;;;1.80;99.90;;;;;;5007466;28;20049;-73
2023/01/24 00:57:59;;;;;;;21.53;13.20;;;1.80;99.90;;;;;;5007925;28;20441;-73
2023/01/24 01:00:25;;;;;;;20.75;12.15;;;1.80;99.90;;;;;;5008553;28;20109;-73
2023/01/24 01:02:50;;;;;;;20.63;12.83;;;1.90;99.90;;;;;;4991332;28;20050;-73
2023/01/24 01:05:17;;;;;;;20.57;12.40;;;1.90;99.90;;;;;;5007991;28;20041;-73
2023/01/24 01:07:43;;;;;;;19.40;11.48;;;1.90;99.90;;;;;;5007062;28;20195;-73
2023/01/24 01:10:09;;;;;;;18.30;12.03;;;1.90;99.90;;;;;;4973828;28;20522;-73
2023/01/24 01:12:35;;;;;;;19.98;12.23;;;1.90;99.90;;;;;;4991233;28;20099;-73
2023/01/24 01:15:01;;;;;;;20.53;12.93;;;1.90;99.90;;;;;;5007852;28;20134;-73
2023/01/24 01:17:27;;;;;;;19.90;12.73;;;1.90;99.90;;;;;;5007148;28;20045;-73
2023/01/24 01:19:53;;;;;;;20.03;12.20;;;1.90;99.90;;;;;;4991378;28;20504;-73
2023/01/24 01:22:19;;;;;;;20.73;11.82;;;1.90;99.90;;;;;;5004040;28;20076;-73
2023/01/24 01:24:45;;;;;;;20.20;12.45;;;1.90;99.90;;;;;;5007322;28;20100;-73
2023/01/24 01:27:11;;;;;;;20.33;12.20;;;1.90;99.90;;;;;;5007282;28;20049;-73
2023/01/24 01:29:37;;;;;;;20.97;13.10;;;1.90;99.90;;;;;;4973361;28;20046;-73
2023/01/24 01:32:02;;;;;;;22.40;12.43;;;1.90;99.90;;;;;;5007331;28;20081;-73
2023/01/24 01:34:28;;;;;;;20.77;12.20;;;1.90;99.90;;;;;;4991046;28;20056;-73
2023/01/24 01:36:54;;;;;;;21.53;12.30;;;1.80;99.90;;;;;;4974497;28;20112;-73
2023/01/24 01:39:22;;;;;;;19.97;12.63;;;1.90;99.90;;;;;;5007739;28;20034;-73
2023/01/24 01:41:48;;;;;;;20.38;12.38;;;1.90;99.90;;;;;;5004024;28;20120;-73
2023/01/24 01:44:38;;;;;;;20.60;12.47;;;1.90;99.90;;;;;;4990861;28;20160;-73
2023/01/24 01:47:25;;;;;;;21.25;12.68;;;1.90;99.90;;;;;;4990545;28;20608;-73
2023/01/24 01:50:02;;;;;;;22.65;13.57;;;1.90;99.90;;;;;;5004753;28;20439;-73
2023/01/24 01:52:32;;;;;;;22.25;13.10;;;1.90;99.90;;;;;;5003114;28;20050;-73
2023/01/24 01:55:04;;;;;;;19.33;11.90;;;1.90;99.90;;;;;;5005465;28;20108;-73
2023/01/24 01:57:31;;;;;;;20.55;12.38;;;1.90;99.90;;;;;;5006149;28;20033;-73
2023/01/24 02:00:12;;;;;;;20.55;11.93;;;1.90;99.90;;;;;;4990622;28;20034;-73
2023/01/24 02:02:43;;;;;;;21.10;12.32;;;1.90;99.90;;;;;;5006310;28;20138;-73
2023/01/24 02:05:13;;;;;;;21.33;12.85;;;2.00;99.90;;;;;;5006809;28;20046;-74
2023/01/24 02:08:03;;;;;;;21.50;12.65;;;1.90;99.90;;;;;;5006098;28;20045;-74
2023/01/24 02:11:37;;;;;;;19.90;12.40;;;1.90;99.90;;;;;;5006221;28;20046;-74
2023/01/24 02:13:15;;;;;;;21.23;12.63;;;1.90;99.90;;;;;;4992423;28;20057;-74
2023/01/24 02:18:28;;;;;;;23.13;12.38;;;1.90;99.90;;;;;;5005708;28;20057;-73
2023/01/24 02:20:54;;;;;;;21.73;13.07;;;2.00;99.90;;;;;;5006444;28;20107;-73
2023/01/24 02:23:41;;;;;;;20.03;12.27;;;2.00;99.90;;;;;;4987926;28;20038;-73
2023/01/24 02:26:10;;;;;;;21.48;12.10;;;2.00;99.90;;;;;;5004233;28;20078;-73
2023/01/24 02:28:37;;;;;;;22.02;12.82;;;2.00;99.90;;;;;;5006259;28;20176;-73
2023/01/24 02:31:04;;;;;;;20.63;12.38;;;1.90;99.90;;;;;;4990017;28;20038;-73
2023/01/24 02:33:31;;;;;;;20.45;12.05;;;2.00;99.90;;;;;;5005770;28;20042;-73
2023/01/24 02:36:24;;;;;;;22.73;12.68;;;2.00;99.90;;;;;;4989849;28;20076;-73
2023/01/24 02:39:12;;;;;;;19.67;12.18;;;1.90;99.90;;;;;;4990451;28;20573;-73
2023/01/24 02:41:44;;;;;;;21.52;12.65;;;2.00;99.90;;;;;;5003000;28;20161;-73
2023/01/24 02:44:14;;;;;;;21.65;12.25;;;1.90;99.90;;;;;;4989398;28;20041;-73
2023/01/24 02:46:44;;;;;;;20.17;12.00;;;1.90;99.90;;;;;;5005894;28;20510;-73
2023/01/24 02:49:10;;;;;;;22.05;13.10;;;2.00;99.90;;;;;;5006134;28;20166;-73
2023/01/24 02:54:20;;;;;;;18.38;11.50;;;2.00;99.90;;;;;;5004409;28;20045;-73
2023/01/24 02:59:30;;;;;;;18.25;11.52;;;2.00;99.90;;;;;;5004736;28;20123;-73
2023/01/24 03:01:56;;;;;;;18.13;11.40;;;2.00;99.90;;;;;;5005494;28;20076;-73
2023/01/24 03:04:21;;;;;;;18.80;11.33;;;2.00;99.90;;;;;;4989491;28;20081;-73
2023/01/24 03:06:48;;;;;;;19.77;12.23;;;2.00;99.90;;;;;;4972382;28;20465;-73
2023/01/24 03:09:18;;;;;;;18.58;12.45;;;2.00;99.90;;;;;;4989216;28;20103;-73
2023/01/24 03:11:48;;;;;;;18.00;11.55;;;2.00;99.90;;;;;;4989272;28;20495;-74
2023/01/24 03:36:19;;;;;;;19.00;11.63;;;2.00;99.90;;;;;;4991179;28;20080;-74
2023/01/24 03:41:30;;;;;;;20.08;11.88;;;2.00;99.90;;;;;;4996451;28;20093;-73
2023/01/24 03:43:55;;;;;;;17.97;11.60;;;2.00;99.90;;;;;;4972387;28;20038;-73
2023/01/24 03:46:21;;;;;;;17.10;10.97;;;2.00;99.90;;;;;;4988021;28;20061;-74
2023/01/24 03:48:47;;;;;;;18.37;11.60;;;2.00;99.90;;;;;;4988723;28;20038;-74
2023/01/24 03:53:57;;;;;;;17.17;10.35;;;2.00;99.90;;;;;;4991276;28;20410;-73
2023/01/24 03:56:22;;;;;;;17.70;11.77;;;2.10;99.90;;;;;;4985480;28;20039;-73
2023/01/24 03:58:48;;;;;;;19.10;11.27;;;2.10;99.90;;;;;;5004720;28;20529;-73
2023/01/24 04:01:14;;;;;;;19.50;11.90;;;2.10;99.90;;;;;;5005330;28;20073;-73
2023/01/24 04:03:39;;;;;;;17.93;11.20;;;2.10;99.90;;;;;;4988925;28;20133;-73
2023/01/24 04:06:05;;;;;;;17.93;11.17;;;2.10;99.90;;;;;;5005346;28;20038;-73
2023/01/24 04:08:31;;;;;;;16.83;10.50;;;2.00;99.90;;;;;;4988567;28;20038;-74
2023/01/24 04:10:57;;;;;;;15.93;10.97;;;2.10;99.90;;;;;;4989363;28;20344;-74
2023/01/24 04:13:23;;;;;;;15.23;10.60;;;2.00;99.90;;;;;;4992033;28;20133;-74
2023/01/24 04:15:49;;;;;;;17.60;10.45;;;2.00;99.90;;;;;;5008513;28;20050;-74
2023/01/24 04:18:15;;;;;;;15.13;9.67;;;2.00;99.90;;;;;;5008143;28;20041;-73
2023/01/24 04:20:40;;;;;;;13.80;9.60;;;2.00;99.90;;;;;;4992361;28;20505;-73
2023/01/24 04:23:07;;;;;;;15.10;9.57;;;2.00;99.90;;;;;;4975924;28;20033;-73
2023/01/24 04:25:34;;;;;;;15.30;8.75;;;2.10;99.90;;;;;;4992437;28;20084;-73
2023/01/24 04:28:00;;;;;;;13.93;9.63;;;2.00;99.90;;;;;;5008053;28;20111;-73
2023/01/24 04:30:26;;;;;;;13.82;9.10;;;2.10;99.90;;;;;;5005108;28;20042;-73
2023/01/24 04:32:52;;;;;;;12.00;8.45;;;2.10;99.90;;;;;;5006130;28;20052;-73
2023/01/24 04:35:24;;;;;;;15.57;10.13;;;2.10;99.90;;;;;;4992274;28;20366;-73
2023/01/24 04:37:50;;;;;;;12.82;8.70;;;2.10;99.90;;;;;;4991741;28;20042;-73
2023/01/24 04:40:16;;;;;;;12.60;8.63;;;2.10;99.90;;;;;;5004907;28;20049;-73
2023/01/24 04:42:42;;;;;;;13.73;8.93;;;2.10;99.90;;;;;;5004970;28;20042;-73
2023/01/24 04:45:09;;;;;;;16.97;9.40;;;2.10;99.90;;;;;;4992009;28;20335;-73
2023/01/24 04:47:35;;;;;;;14.60;9.30;;;2.10;99.90;;;;;;5007998;28;20753;-73
2023/01/24 04:50:00;;;;;;;16.53;10.57;;;2.10;99.90;;;;;;4975694;28;20046;-73
2023/01/24 04:52:26;;;;;;;14.97;9.23;;;2.10;99.90;;;;;;5007992;28;20034;-73
2023/01/24 04:54:52;;;;;;;14.80;9.47;;;2.00;99.90;;;;;;5008106;28;20228;-73
2023/01/24 04:57:18;;;;;;;14.80;9.83;;;2.00;99.90;;;;;;5007958;28;20063;-74
2023/01/24 04:59:44;;;;;;;14.82;9.32;;;2.10;99.90;;;;;;5008089;28;20041;-74
2023/01/24 05:02:10;;;;;;;15.52;10.55;;;2.10;99.90;;;;;;4991190;28;20392;-74
2023/01/24 05:04:36;;;;;;;14.53;10.03;;;2.00;99.90;;;;;;4991710;28;20073;-73
2023/01/24 05:07:02;;;;;;;15.83;10.77;;;2.00;99.90;;;;;;5008399;28;20441;-73
2023/01/24 05:09:28;;;;;;;17.10;10.05;;;2.00;99.90;;;;;;4991777;28;20586;-74
2023/01/24 05:11:53;;;;;;;15.20;9.57;;;2.00;99.90;;;;;;5006024;28;20103;-73
2023/01/24 05:14:19;;;;;;;16.17;10.00;;;2.00;99.90;;;;;;4991614;28;20077;-73
2023/01/24 05:16:45;;;;;;;15.00;9.67;;;2.00;99.90;;;;;;4991664;28;20037;-73
2023/01/24 05:19:11;;;;;;;16.60;9.93;;;2.00;99.90;;;;;;5008291;28;20040;-73
2023/01/24 05:21:36;;;;;;;17.03;10.40;;;2.00;99.90;;;;;;5006623;28;20045;-74
2023/01/24 05:24:03;;;;;;;16.70;10.33;;;2.00;99.90;;;;;;5007832;28;20049;-73
2023/01/24 05:26:28;;;;;;;16.98;10.07;;;2.00;99.90;;;;;;4974133;28;20038;-74
2023/01/24 05:28:54;;;;;;;15.97;10.43;;;2.00;99.90;;;;;;5005729;28;20112;-74
2023/01/24 05:31:21;;;;;;;18.67;11.00;;;2.00;99.90;;;;;;5004099;28;20502;-73
2023/01/24 05:33:46;;;;;;;17.23;10.63;;;2.00;99.90;;;;;;5004583;28;20073;-73
2023/01/24 05:36:18;;;;;;;17.33;10.60;;;2.00;99.90;;;;;;5006842;28;20480;-73
2023/01/24 05:38:44;;;;;;;18.27;11.15;;;2.00;99.90;;;;;;5005636;28;20076;-73
2023/01/24 05:41:13;;;;;;;17.33;10.98;;;2.00;99.90;;;;;;4987788;28;20398;-74
2023/01/24 05:43:39;;;;;;;16.85;10.55;;;2.00;99.90;;;;;;4982893;28;20192;-74
2023/01/24 05:46:12;;;;;;;17.73;11.27;;;2.00;99.90;;;;;;5005100;28;20158;-73
2023/01/24 05:48:38;;;;;;;16.67;11.25;;;2.10;99.90;;;;;;4988555;28;20064;-73
2023/01/24 05:51:06;;;;;;;17.15;10.80;;;2.00;99.90;;;;;;5002774;28;20042;-73
2023/01/24 05:53:34;;;;;;;18.17;11.88;;;2.00;99.90;;;;;;5006077;28;20614;-73
2023/01/24 05:56:05;;;;;;;16.92;10.98;;;2.00;99.90;;;;;;4988474;28;20132;-73
2023/01/24 05:58:34;;;;;;;17.88;11.15;;;2.00;99.90;;;;;;5002766;28;20064;-73
2023/01/24 06:01:00;;;;;;;18.00;11.57;;;2.00;99.90;;;;;;5004456;28;20045;-73
2023/01/24 06:03:26;;;;;;;17.70;10.98;;;2.00;99.90;;;;;;5000126;28;20038;-74
2023/01/24 06:05:54;;;;;;;19.03;11.87;;;2.00;99.90;;;;;;4990454;28;20389;-73
2023/01/24 06:08:21;;;;;;;18.50;11.95;;;2.00;99.90;;;;;;4989022;28;20386;-73
2023/01/24 06:10:47;;;;;;;17.55;11.65;;;2.00;99.90;;;;;;5001394;28;20053;-74
2023/01/24 06:13:14;;;;;;;19.33;11.98;;;1.90;99.90;;;;;;4983988;28;20084;-74
2023/01/24 06:15:40;;;;;;;20.10;11.95;;;1.90;99.90;;;;;;4988274;28;20410;-74
2023/01/24 06:18:10;;;;;;;21.48;12.80;;;2.00;99.90;;;;;;4982473;28;20073;-74
2023/01/24 06:20:37;;;;;;;21.38;12.50;;;2.00;99.90;;;;;;5002610;28;20449;-74
2023/01/24 06:23:09;;;;;;;21.45;12.85;;;2.00;99.90;;;;;;4989782;28;20077;-74
2023/01/24 06:25:36;;;;;;;31.05;14.55;;;2.00;99.90;;;;;;5003759;28;20516;-74
2023/01/24 06:28:02;;;;;;;23.92;13.45;;;1.90;99.90;;;;;;4990175;28;20042;-74
2023/01/24 06:30:28;;;;;;;20.55;13.05;;;1.90;99.90;;;;;;4985594;28;20828;-73
2023/01/24 06:33:07;;;;;;;22.30;13.60;;;1.80;99.90;;;;;;5001696;28;20073;-73
2023/01/24 06:35:41;;;;;;;22.60;14.02;;;1.80;99.90;;;;;;5006662;28;20399;-73
2023/01/24 06:38:21;;;;;;;21.95;13.27;;;1.80;99.90;;;;;;5004546;28;20141;-73
2023/01/24 06:40:51;;;;;;;25.05;14.38;;;1.80;99.90;;;;;;5000309;28;20106;-74
2023/01/24 06:43:17;;;;;;;23.77;14.63;;;1.80;99.90;;;;;;4983147;28;20041;-74
2023/01/24 06:45:42;;;;;;;22.77;13.73;;;1.80;99.90;;;;;;4990192;28;20637;-73
2023/01/24 06:48:08;;;;;;;22.40;14.17;;;1.80;99.90;;;;;;4973868;28;20045;-73
2023/01/24 06:50:34;;;;;;;22.27;14.40;;;1.80;99.90;;;;;;4974158;28;20053;-73
2023/01/24 06:53:00;;;;;;;25.20;14.70;;;1.80;99.90;;;;;;5005913;28;20046;-73
2023/01/24 06:55:25;;;;;;;24.43;14.60;;;1.80;99.90;;;;;;4989093;28;20050;-73
2023/01/24 06:57:56;;;;;;;26.20;14.17;;;1.80;99.90;;;;;;5005948;28;20038;-73
2023/01/24 07:00:21;;;;;;;27.65;15.27;;;1.80;99.90;;;;;;5006780;28;20034;-73
2023/01/24 07:02:47;;;;;;;27.00;15.17;;;1.80;99.90;;;;;;4980231;28;20076;-73
2023/01/24 07:05:13;;;;;;;25.03;15.47;;;1.70;99.90;;;;;;4987424;28;20060;-73
2023/01/24 07:07:38;;;;;;;26.07;15.37;;;1.70;99.90;;;;;;5000612;28;20113;-73
2023/01/24 07:10:05;;;;;;;24.43;15.57;;;1.70;99.90;;;;;;4998505;28;20050;-73
2023/01/24 07:12:31;;;;;;;25.23;15.68;;;1.70;99.90;;;;;;5005633;28;20042;-73
2023/01/24 07:14:56;;;;;;;25.17;15.33;;;1.70;99.90;;;;;;5006286;28;20503;-73
2023/01/24 07:17:22;;;;;;;24.70;15.03;;;1.80;99.90;;;;;;4974815;28;20073;-73
2023/01/24 07:19:48;;;;;;;27.30;16.63;;;1.70;99.90;;;;;;5007264;28;20042;-73
2023/01/24 07:22:14;;;;;;;24.67;14.90;;;1.70;99.90;;;;;;4989335;28;20045;-73
2023/01/24 07:24:42;;;;;;;25.38;15.40;;;1.70;99.90;;;;;;5006783;28;20056;-73
2023/01/24 07:27:08;;;;;;;24.95;15.18;;;1.70;99.90;;;;;;5002455;28;20046;-74
2023/01/24 07:29:34;;;;;;;24.73;15.40;;;1.70;99.90;;;;;;4975090;28;20042;-73
2023/01/24 07:32:00;;;;;;;25.70;15.77;;;1.70;99.90;;;;;;4977036;28;20057;-73
2023/01/24 07:34:25;;;;;;;24.60;14.93;;;1.70;99.90;;;;;;4989697;28;20133;-73
2023/01/24 07:36:51;;;;;;;26.17;16.00;;;1.70;99.90;;;;;;5005441;28;20269;-73
2023/01/24 07:39:17;;;;;;;25.07;14.83;;;1.70;99.90;;;;;;4987736;28;20120;-73
2023/01/24 07:41:43;;;;;;;24.93;15.47;;;1.70;99.90;;;;;;4986312;28;20041;-73
2023/01/24 07:44:09;;;;;;;26.08;15.23;;;1.70;99.90;;;;;;4990385;28;20069;-74
2023/01/24 07:46:36;;;;;;;25.95;15.82;;;1.70;99.90;;;;;;5010381;28;20172;-74
2023/01/24 07:49:02;;;;;;;29.08;17.08;;;1.70;99.90;;;;;;5012380;28;20049;-74
2023/01/24 07:51:27;;;;;;;27.07;15.83;;;1.70;99.90;;;;;;5010810;28;20046;-74
2023/01/24 07:53:53;;;;;;;27.23;16.33;;;1.70;99.90;;;;;;4989611;28;20120;-75
2023/01/24 07:56:19;;;;;;;26.40;15.30;;;1.70;99.90;;;;;;4994756;28;20057;-75
2023/01/24 07:58:48;;;;;;;26.10;16.10;;;1.70;99.90;;;;;;5011517;28;20038;-74
2023/01/24 08:01:21;;;;;;;28.57;16.73;;;1.70;99.90;;;;;;4977697;28;20049;-73
2023/01/24 08:03:47;;;;;;;28.33;15.48;;;1.80;99.90;;;;;;4985088;28;20053;-74
2023/01/24 08:06:13;;;;;;;27.25;16.33;;;1.80;99.90;;;;;;4994399;28;20042;-74
2023/01/24 08:08:38;;;;;;;27.00;15.10;;;1.70;99.90;;;;;;5010377;28;20040;-74
2023/01/24 08:11:04;;;;;;;25.97;15.53;;;1.70;99.90;;;;;;5009869;28;20098;-75
2023/01/24 08:13:30;;;;;;;27.00;15.63;;;1.70;99.90;;;;;;4988207;28;20041;-75
2023/01/24 08:15:55;;;;;;;24.83;15.07;;;1.70;99.90;;;;;;4985274;28;20129;-74
2023/01/24 08:18:21;;;;;;;27.07;15.53;;;1.70;99.90;;;;;;4987761;28;20042;-74
2023/01/24 08:20:48;;;;;;;24.53;15.27;;;1.70;99.90;;;;;;5002413;28;20057;-74
2023/01/24 08:23:17;;;;;;;26.27;15.30;;;1.70;99.90;;;;;;5000616;28;20120;-74
2023/01/24 08:25:42;;;;;;;27.60;16.20;;;1.70;99.90;;;;;;4990337;28;20145;-73
2023/01/24 08:28:08;;;;;;;24.63;14.90;;;1.70;99.90;;;;;;4993946;28;20486;-74
2023/01/24 08:30:34;;;;;;;25.37;15.13;;;1.70;99.90;;;;;;4992627;28;20046;-75
2023/01/24 08:33:04;;;;;;;24.20;15.00;;;1.70;99.90;;;;;;5010606;28;20096;-74
2023/01/24 08:35:30;;;;;;;27.30;14.65;;;1.70;99.90;;;;;;4992542;28;20038;-74
2023/01/24 08:37:56;;;;;;;23.10;13.65;;;1.70;99.90;;;;;;5009912;28;20037;-74
2023/01/24 08:40:22;;;;;;;25.83;14.30;;;1.70;99.90;;;;;;5009089;28;20409;-74
2023/01/24 08:42:48;;;;;;;24.93;14.20;;;1.70;99.90;;;;;;5007985;28;20728;-74
2023/01/24 08:45:14;;;;;;;24.83;14.67;;;1.80;99.90;;;;;;4978075;28;20054;-74
2023/01/24 08:47:39;;;;;;;23.27;13.63;;;1.80;99.90;;;;;;5009794;28;20073;-75
2023/01/24 08:50:06;;;;;;;25.23;14.93;;;1.70;99.90;;;;;;5009629;28;20042;-75
2023/01/24 08:52:32;;;;;;;24.98;14.13;;;1.80;99.90;;;;;;5010300;28;20053;-75
2023/01/24 08:55:00;;;;;;;25.53;14.80;;;1.70;99.90;;;;;;4993600;28;20057;-74
2023/01/24 08:57:26;;;;;;;24.70;13.90;;;1.80;99.90;;;;;;4995165;28;20046;-74
2023/01/24 08:59:51;;;;;;;23.53;14.07;;;1.80;99.90;;;;;;5008736;28;20414;-75
2023/01/24 09:02:17;;;;;;;24.63;14.47;;;1.80;99.90;;;;;;4983633;28;20038;-75
2023/01/24 09:04:43;;;;;;;24.00;13.83;;;1.80;99.90;;;;;;5009784;28;20042;-75
2023/01/24 09:07:12;;;;;;;23.60;13.73;;;1.80;99.90;;;;;;5009481;28;20073;-76
2023/01/24 09:09:38;;;;;;;18.85;12.15;;;1.80;99.90;;;;;;5001712;28;20049;-75
2023/01/24 09:12:04;;;;;;;22.87;13.53;;;1.80;99.90;;;;;;5008378;28;20545;-74
2023/01/24 09:14:30;;;;;;;21.85;13.50;;;1.80;99.90;;;;;;5008880;28;20069;-73
2023/01/24 09:16:56;;;;;;;26.93;14.20;;;1.80;99.90;;;;;;5009083;28;20532;-75
2023/01/24 09:19:21;;;;;;;22.00;13.13;;;1.80;99.90;;;;;;5009852;28;20040;-75
2023/01/24 09:21:51;;;;;;;24.27;13.37;;;1.80;99.90;;;;;;5004784;28;20331;-75
2023/01/24 09:24:18;;;;;;;24.20;13.55;;;1.80;99.90;;;;;;5008996;28;20300;-75
2023/01/24 09:26:44;;;;;;;23.08;13.27;;;1.90;99.90;;;;;;5007376;28;20064;-74
2023/01/24 09:29:10;;;;;;;23.23;12.88;;;1.90;99.90;;;;;;4992771;28;20033;-74
2023/01/24 09:31:37;;;;;;;21.00;12.63;;;1.90;99.90;;;;;;5007708;28;20095;-75
2023/01/24 09:34:03;;;;;;;22.70;12.30;;;2.00;99.90;;;;;;5009105;28;20061;-75
2023/01/24 09:36:29;;;;;;;22.80;12.60;;;2.00;99.90;;;;;;5005232;28;20441;-75
2023/01/24 09:38:56;;;;;;;20.58;12.25;;;1.90;99.90;;;;;;5004322;28;20048;-75
2023/01/24 09:41:44;;;;;;;19.27;12.02;;;2.00;99.90;;;;;;5004280;28;20045;-74
2023/01/24 09:44:41;;;;;;;20.45;12.02;;;2.00;99.90;;;;;;5006213;28;20057;-74
2023/01/24 09:47:23;;;;;;;20.73;12.15;;;2.00;99.90;;;;;;5000479;28;20089;-74
2023/01/24 09:49:57;;;;;;;19.10;11.50;;;2.00;99.90;;;;;;5024626;28;20545;-75
2023/01/24 09:52:39;;;;;;;19.45;11.45;;;2.00;99.90;;;;;;5009138;28;20058;-74
2023/01/24 09:55:40;;;;;;;19.35;10.77;;;2.00;99.90;;;;;;5008035;28;20048;-75
2023/01/24 09:58:54;;;;;;;19.95;11.20;;;2.00;99.90;;;;;;4976740;28;20081;-76
2023/01/24 10:01:20;;;;;;;19.15;11.95;;;2.00;99.90;;;;;;4973106;28;20050;-75
2023/01/24 10:03:46;;;;;;;17.90;11.13;;;2.10;99.90;;;;;;4992647;28;20544;-74
2023/01/24 10:06:22;;;;;;;18.83;11.65;;;2.10;99.90;;;;;;4993247;28;20568;-75
2023/01/24 10:09:02;;;;;;;18.98;11.65;;;2.10;99.90;;;;;;5007485;28;20081;-74
2023/01/24 10:11:53;;;;;;;21.63;12.10;;;2.10;99.90;;;;;;4989345;28;20076;-74
2023/01/24 10:14:38;;;;;;;18.60;10.95;;;2.10;99.90;;;;;;5006442;28;20486;-74
2023/01/24 10:17:15;;;;;;;18.40;11.90;;;2.10;99.90;;;;;;5006316;28;20050;-74
2023/01/24 10:20:07;;;;;;;19.73;11.15;;;2.10;99.90;;;;;;4998185;28;20045;-74
2023/01/24 10:23:08;;;;;;;20.65;11.73;;;2.10;99.90;;;;;;5006222;28;20049;-74
2023/01/24 10:25:48;;;;;;;20.02;11.82;;;2.10;99.90;;;;;;5004753;28;20056;-74
2023/01/24 10:28:46;;;;;;;18.63;12.10;;;2.20;99.90;;;;;;4986971;28;20398;-74
2023/01/24 10:31:30;;;;;;;18.15;10.77;;;2.20;99.90;;;;;;4998630;28;20088;-74
2023/01/24 10:34:03;;;;;;;20.27;11.60;;;2.20;99.90;;;;;;5006863;28;20049;-74
2023/01/24 10:36:46;;;;;;;18.63;11.68;;;2.20;99.90;;;;;;4990279;28;20117;-74
2023/01/24 10:39:12;;;;;;;18.35;11.13;;;2.20;99.90;;;;;;4989639;28;20049;-74
2023/01/24 10:41:39;;;;;;;17.52;11.90;;;2.20;99.90;;;;;;4987664;28;20038;-74
2023/01/24 10:44:11;;;;;;;16.23;10.90;;;2.20;99.90;;;;;;5007332;28;20490;-74
2023/01/24 10:46:47;;;;;;;16.30;10.57;;;2.20;99.90;;;;;;4990343;28;20049;-74
2023/01/24 10:49:22;;;;;;;16.63;10.38;;;2.20;99.90;;;;;;5006595;28;20490;-73
2023/01/24 10:52:16;;;;;;;16.35;10.55;;;2.20;99.90;;;;;;4986238;28;20044;-74
2023/01/24 10:54:56;;;;;;;17.35;10.07;;;2.20;99.90;;;;;;4998391;28;20524;-73
2023/01/24 10:57:37;;;;;;;18.85;10.95;;;2.20;99.90;;;;;;5006294;28;20073;-73
2023/01/24 11:00:26;;;;;;;19.23;11.15;;;2.10;99.90;;;;;;4996675;28;20056;-74
2023/01/24 11:02:55;;;;;;;16.23;10.23;;;2.20;99.90;;;;;;5006394;28;20401;-74
2023/01/24 11:05:23;;;;;;;19.05;11.52;;;2.20;99.90;;;;;;4990032;28;20508;-74
2023/01/24 11:07:52;;;;;;;18.10;10.85;;;2.20;99.90;;;;;;4989343;28;20102;-74
2023/01/24 11:10:17;;;;;;;18.73;10.90;;;2.20;99.90;;;;;;4989085;28;20053;-74
2023/01/24 11:12:58;;;;;;;17.63;11.43;;;2.20;99.90;;;;;;5005653;28;20046;-74
2023/01/24 11:15:32;;;;;;;16.95;11.30;;;2.20;99.90;;;;;;5006005;28;20153;-74
2023/01/24 11:18:05;;;;;;;19.98;11.73;;;2.20;99.90;;;;;;5013653;28;20045;-74
2023/01/24 11:20:34;;;;;;;19.08;11.52;;;2.20;99.90;;;;;;5002976;28;20088;-74
2023/01/24 11:23:26;;;;;;;16.25;10.70;;;2.20;99.90;;;;;;5006007;28;20046;-74
2023/01/24 11:25:54;;;;;;;18.92;11.75;;;2.20;99.90;;;;;;4989315;28;20469;-74
2023/01/24 11:28:28;;;;;;;18.45;10.68;;;2.20;99.90;;;;;;5006102;28;20056;-74
2023/01/24 11:31:02;;;;;;;17.10;11.23;;;2.20;99.90;;;;;;4988653;28;20585;-74
2023/01/24 11:33:43;;;;;;;16.13;10.40;;;2.30;99.90;;;;;;5005813;28;20045;-74
2023/01/24 11:36:42;;;;;;;17.58;10.77;;;2.30;99.90;;;;;;5005046;28;20111;-74
2023/01/24 11:39:31;;;;;;;17.00;10.25;;;2.30;99.90;;;;;;4994271;28;20057;-74
2023/01/24 11:42:06;;;;;;;18.88;10.57;;;2.30;99.90;;;;;;4987229;28;20080;-74
2023/01/24 11:45:03;;;;;;;19.25;11.13;;;2.30;99.90;;;;;;5006166;28;20569;-74
2023/01/24 11:47:36;;;;;;;17.02;11.07;;;2.30;99.90;;;;;;4997462;28;20108;-74
2023/01/24 11:50:17;;;;;;;15.95;10.10;;;2.30;99.90;;;;;;5003922;28;20046;-74
2023/01/24 11:53:09;;;;;;;18.00;10.65;;;2.30;99.90;;;;;;5004396;28;20144;-74
2023/01/24 11:55:43;;;;;;;18.92;11.07;;;2.30;99.90;;;;;;5005020;28;20038;-74
2023/01/24 11:58:22;;;;;;;16.58;10.50;;;2.30;99.90;;;;;;5006153;28;20046;-74
2023/01/24 12:01:22;;;;;;;17.90;11.38;;;2.30;99.90;;;;;;4989171;28;20080;-74
2023/01/24 12:03:54;;;;;;;18.08;11.18;;;2.30;99.90;;;;;;5003577;28;20046;-74
2023/01/24 12:06:25;;;;;;;17.58;10.63;;;2.30;99.90;;;;;;4976708;28;20042;-74
2023/01/24 12:09:19;;;;;;;16.50;10.75;;;2.30;99.90;;;;;;5004716;28;20060;-74
2023/01/24 12:12:05;;;;;;;18.73;11.48;;;2.30;99.90;;;;;;4981049;28;20033;-74
2023/01/24 12:14:42;;;;;;;17.77;11.00;;;2.30;99.90;;;;;;5002742;28;20042;-74
2023/01/24 12:17:08;;;;;;;17.17;11.27;;;2.30;99.90;;;;;;4987612;28;20088;-74
2023/01/24 12:19:42;;;;;;;16.37;9.83;;;2.30;99.90;;;;;;5007779;28;20046;-74
2023/01/24 12:22:22;;;;;;;19.38;12.00;;;2.30;99.90;;;;;;5006968;28;20089;-75
2023/01/24 12:25:02;;;;;;;17.63;11.48;;;2.40;99.90;;;;;;4990319;28;20402;-75
2023/01/24 12:27:32;;;;;;;19.05;11.20;;;2.30;99.90;;;;;;4992066;28;20104;-75
2023/01/24 12:30:00;;;;;;;19.38;10.93;;;2.30;99.90;;;;;;5009968;28;20077;-74
2023/01/24 12:32:46;;;;;;;18.58;11.32;;;2.30;99.90;;;;;;5008310;28;20506;-74
2023/01/24 12:35:36;;;;;;;19.55;11.43;;;2.30;99.90;;;;;;4994603;28;20045;-75
2023/01/24 12:38:17;;;;;;;18.42;10.88;;;2.30;99.90;;;;;;5010542;28;20125;-74
2023/01/24 12:41:07;;;;;;;16.50;10.98;;;2.30;99.90;;;;;;4989947;28;20132;-74
2023/01/24 12:44:08;;;;;;;18.33;10.52;;;2.30;99.90;;;;;;5006616;28;20717;-74
2023/01/24 12:46:58;;;;;;;18.42;11.52;;;2.30;99.90;;;;;;5006725;28;20056;-74
2023/01/24 12:49:44;;;;;;;18.10;10.88;;;2.30;99.90;;;;;;4992774;28;20137;-74
2023/01/24 12:52:12;;;;;;;18.05;11.35;;;2.30;99.90;;;;;;5004910;28;20048;-74
2023/01/24 12:54:50;;;;;;;16.52;10.88;;;2.30;99.90;;;;;;4993290;28;20046;-74
2023/01/24 12:57:38;;;;;;;18.45;11.45;;;2.40;99.90;;;;;;5008734;28;20034;-74
2023/01/24 13:00:16;;;;;;;16.85;10.25;;;2.40;99.90;;;;;;4992314;28;20119;-74
2023/01/24 13:03:17;;;;;;;16.48;10.80;;;2.30;99.90;;;;;;5009387;28;20045;-74
2023/01/24 13:06:02;;;;;;;16.65;10.95;;;2.30;99.90;;;;;;4998383;28;20521;-75
2023/01/24 13:08:48;;;;;;;17.80;10.98;;;2.30;99.90;;;;;;5009983;28;20045;-74
2023/01/24 13:11:20;;;;;;;17.63;10.60;;;2.30;99.90;;;;;;4993806;28;20038;-75
2023/01/24 13:14:19;;;;;;;17.70;11.25;;;2.30;99.90;;;;;;5010645;28;20037;-75
2023/01/24 13:16:55;;;;;;;18.13;11.32;;;2.30;99.90;;;;;;5008404;28;20048;-74
2023/01/24 13:19:44;;;;;;;16.80;10.60;;;2.20;99.90;;;;;;4993529;28;20038;-75
2023/01/24 13:22:39;;;;;;;19.38;11.20;;;2.30;99.90;;;;;;5006081;28;20509;-75
2023/01/24 13:25:32;;;;;;;16.45;10.23;;;2.30;99.90;;;;;;4974946;28;20072;-75
2023/01/24 13:28:27;;;;;;;17.58;11.40;;;2.30;99.90;;;;;;5002837;28;20042;-75
2023/01/24 13:31:32;;;;;;;15.63;10.32;;;2.30;99.90;;;;;;4991537;28;20053;-75
2023/01/24 13:34:03;;;;;;;16.25;10.48;;;2.30;99.90;;;;;;5009264;28;20054;-75
2023/01/24 13:36:35;;;;;;;18.98;11.25;;;2.30;99.90;;;;;;5006703;28;20061;-75